createdAt,value
2024-01-16T00:01:00.092Z,99656.00
2024-01-16T00:03:26.671Z,99666.50
2024-01-16T00:05:53.248Z,99663.94
2024-01-16T00:08:19.724Z,99670.94
2024-01-16T00:10:46.261Z,99679.69
2024-01-16T00:13:13.196Z,99682.28
2024-01-16T00:15:42.747Z,99671.81
2024-01-16T00:18:09.738Z,99669.19
2024-01-16T00:20:36.702Z,99669.22
2024-01-16T00:23:03.189Z,99673.56
2024-01-16T00:25:29.648Z,99678.78
2024-01-16T00:27:56.743Z,99681.41
2024-01-16T00:30:23.474Z,99682.28
2024-01-16T00:32:50.409Z,99677.03
2024-01-16T00:35:17.277Z,99672.69
2024-01-16T00:37:44.004Z,99667.44
2024-01-16T00:40:11.058Z,99675.31
2024-01-16T00:42:37.847Z,99673.56
2024-01-16T00:45:05.755Z,99670.94
2024-01-16T00:47:32.582Z,99664.00
2024-01-16T00:50:01.536Z,99666.56
2024-01-16T00:52:28.410Z,99659.63
2024-01-16T00:54:55.187Z,99673.56
2024-01-16T00:57:22.426Z,99672.72
2024-01-16T00:59:49.336Z,99670.09
2024-01-16T01:02:16.573Z,99677.94
2024-01-16T01:04:44.314Z,99685.78
2024-01-16T01:07:14.593Z,99680.56
2024-01-16T01:09:41.941Z,99690.16
2024-01-16T01:12:08.981Z,99687.53
2024-01-16T01:14:35.942Z,99683.19
2024-01-16T01:17:02.923Z,99682.31
2024-01-16T01:19:29.709Z,99693.63
2024-01-16T01:21:56.398Z,99697.97
2024-01-16T01:24:23.129Z,99691.81
2024-01-16T01:26:49.845Z,99694.41
2024-01-16T01:29:16.761Z,99696.91
2024-01-16T01:31:47.243Z,99701.34
2024-01-16T01:34:14.018Z,99707.50
2024-01-16T01:36:40.752Z,99698.69
2024-01-16T01:39:07.805Z,99702.25
2024-01-16T01:41:34.600Z,99704.91
2024-01-16T01:44:01.389Z,99710.13
2024-01-16T01:46:29.223Z,99703.16
2024-01-16T01:48:57.234Z,99715.31
2024-01-16T01:51:24.620Z,99716.19
2024-01-16T01:53:52.996Z,99720.50
2024-01-16T01:56:21.982Z,99725.69
2024-01-16T01:58:50.786Z,99730.03
2024-01-16T02:01:20.262Z,99731.66
2024-01-16T02:03:48.513Z,99743.47
2024-01-16T02:06:17.659Z,99739.38
2024-01-16T02:08:46.183Z,99745.50
2024-01-16T02:11:13.394Z,99738.59
2024-01-16T02:13:40.202Z,99744.75
2024-01-16T02:16:07.224Z,99737.88
2024-01-16T02:18:34.081Z,99731.88
2024-01-16T02:21:04.241Z,99745.91
2024-01-16T02:23:32.537Z,99731.97
2024-01-16T02:25:59.155Z,99716.28
2024-01-16T02:28:25.643Z,99718.88
2024-01-16T02:30:52.323Z,99731.13
2024-01-16T02:33:19.399Z,99723.28
2024-01-16T02:35:46.116Z,99726.75
2024-01-16T02:38:12.690Z,99732.88
2024-01-16T02:40:39.178Z,99733.75
2024-01-16T02:43:05.716Z,99738.09
2024-01-16T02:45:32.165Z,99732.00
2024-01-16T02:47:59.068Z,99737.25
2024-01-16T02:50:25.637Z,99745.94
2024-01-16T02:52:52.258Z,99747.72
2024-01-16T02:55:18.789Z,99742.44
2024-01-16T02:57:45.545Z,99740.72
2024-01-16T03:00:12.401Z,99750.31
2024-01-16T03:02:39.062Z,99757.31
2024-01-16T03:05:08.749Z,99748.56
2024-01-16T03:07:35.989Z,99747.72
2024-01-16T03:10:02.554Z,99747.72
2024-01-16T03:12:29.113Z,99747.72
2024-01-16T03:14:55.889Z,99745.97
2024-01-16T03:17:22.592Z,99746.84
2024-01-16T03:19:49.198Z,99739.00
2024-01-16T03:22:15.720Z,99750.34
2024-01-16T03:24:42.177Z,99747.75
2024-01-16T03:27:08.704Z,99749.47
2024-01-16T03:29:35.326Z,99752.97
2024-01-16T03:32:02.260Z,99749.50
2024-01-16T03:34:29.377Z,99743.38
2024-01-16T03:36:55.946Z,99745.13
2024-01-16T03:39:23.627Z,99745.09
2024-01-16T03:41:50.276Z,99755.59
2024-01-16T03:44:16.948Z,99739.91
2024-01-16T03:46:43.403Z,99740.75
2024-01-16T03:49:10.017Z,99745.13
2024-01-16T03:51:36.460Z,99751.22
2024-01-16T03:54:03.065Z,99749.47
2024-01-16T03:56:30.077Z,99745.09
2024-01-16T03:58:56.592Z,99744.25
2024-01-16T04:01:37.273Z,99741.63
2024-01-16T04:04:04.147Z,99737.25
2024-01-16T04:06:31.040Z,99737.28
2024-01-16T04:08:57.632Z,99737.28
2024-01-16T04:11:24.140Z,99752.97
2024-01-16T04:13:50.974Z,99746.00
2024-01-16T04:16:17.596Z,99744.22
2024-01-16T04:18:44.924Z,99741.63
2024-01-16T04:21:11.982Z,99745.97
2024-01-16T04:23:38.598Z,99748.59
2024-01-16T04:26:05.333Z,99745.09
2024-01-16T04:28:31.917Z,99742.47
2024-01-16T04:30:58.447Z,99751.22
2024-01-16T04:33:25.185Z,99752.94
2024-01-16T04:35:51.819Z,99762.53
2024-01-16T04:38:18.455Z,99766.03
2024-01-16T04:40:45.109Z,99771.19
2024-01-16T04:43:11.573Z,99768.53
2024-01-16T04:45:38.052Z,99775.38
2024-01-16T04:48:05.051Z,99767.59
2024-01-16T04:50:34.405Z,99770.28
2024-01-16T04:53:01.579Z,99758.97
2024-01-16T04:55:31.521Z,99758.06
2024-01-16T04:57:58.310Z,99749.34
2024-01-16T05:00:25.082Z,99744.13
2024-01-16T05:02:52.713Z,99745.88
2024-01-16T05:05:19.453Z,99737.97
2024-01-16T05:07:46.471Z,99723.22
2024-01-16T05:10:16.582Z,99727.56
2024-01-16T05:12:43.180Z,99726.69
2024-01-16T05:15:12.410Z,99733.66
2024-01-16T05:17:41.847Z,99731.06
2024-01-16T05:20:09.404Z,99731.00
2024-01-16T05:22:35.966Z,99724.03
2024-01-16T05:25:03.554Z,99710.97
2024-01-16T05:27:30.158Z,99713.59
2024-01-16T05:29:56.692Z,99707.44
2024-01-16T05:32:23.242Z,99705.69
2024-01-16T05:34:49.752Z,99719.59
2024-01-16T05:37:16.842Z,99717.78
2024-01-16T05:39:43.322Z,99720.34
2024-01-16T05:42:10.043Z,99713.25
2024-01-16T05:44:36.656Z,99712.25
2024-01-16T05:47:03.433Z,99710.56
2024-01-16T05:49:29.997Z,99710.47
2024-01-16T05:51:56.628Z,99711.34
2024-01-16T05:54:23.134Z,99712.97
2024-01-16T05:56:51.092Z,99712.94
2024-01-16T05:59:17.714Z,99714.66
2024-01-16T06:01:44.196Z,99718.16
2024-01-16T06:04:13.544Z,99720.81
2024-01-16T06:06:45.658Z,99720.72
2024-01-16T06:09:15.003Z,99721.56
2024-01-16T06:11:44.717Z,99722.34
2024-01-16T06:14:13.278Z,99722.19
2024-01-16T06:16:39.895Z,99720.50
2024-01-16T06:19:06.605Z,99723.94
2024-01-16T06:21:33.438Z,99713.50
2024-01-16T06:24:00.026Z,99714.31
2024-01-16T06:26:26.700Z,99713.56
2024-01-16T06:28:53.170Z,99707.66
2024-01-16T06:31:19.724Z,99702.50
2024-01-16T06:33:46.428Z,99695.50
2024-01-16T06:36:13.204Z,99697.16
2024-01-16T06:38:41.641Z,99706.78
2024-01-16T06:41:08.444Z,99706.53
2024-01-16T06:43:35.319Z,99712.44
2024-01-16T06:46:01.910Z,99702.00
2024-01-16T06:48:28.713Z,99705.41
2024-01-16T06:50:55.398Z,99702.09
2024-01-16T06:53:21.925Z,99698.47
2024-01-16T06:55:49.791Z,99699.38
2024-01-16T06:58:16.248Z,99704.66
2024-01-16T07:00:42.827Z,99700.28
2024-01-16T07:03:10.543Z,99695.91
2024-01-16T07:05:37.243Z,99710.28
2024-01-16T07:08:04.754Z,99710.31
2024-01-16T07:10:31.234Z,99702.41
2024-01-16T07:12:57.858Z,99706.00
2024-01-16T07:15:24.312Z,99705.91
2024-01-16T07:17:50.918Z,99712.25
2024-01-16T07:20:17.559Z,99708.91
2024-01-16T07:22:44.328Z,99716.06
2024-01-16T07:25:10.828Z,99721.41
2024-01-16T07:27:37.519Z,99725.81
2024-01-16T07:30:07.719Z,99720.06
2024-01-16T07:32:35.184Z,99718.41
2024-01-16T07:35:04.124Z,99713.28
2024-01-16T07:37:30.858Z,99709.84
2024-01-16T07:39:57.325Z,99711.56
2024-01-16T07:42:23.773Z,99708.94
2024-01-16T07:44:50.356Z,99709.00
2024-01-16T07:47:16.945Z,99708.13
2024-01-16T07:49:44.378Z,99705.53
2024-01-16T07:52:10.911Z,99702.09
2024-01-16T07:54:37.402Z,99705.66
2024-01-16T07:57:04.105Z,99704.72
2024-01-16T07:59:30.676Z,99721.28
2024-01-16T08:01:57.981Z,99720.41
2024-01-16T08:04:24.447Z,99719.53
2024-01-16T08:06:51.070Z,99717.78
2024-01-16T08:09:18.483Z,99716.97
2024-01-16T08:11:45.058Z,99720.41
2024-01-16T08:14:12.155Z,99729.91
2024-01-16T08:16:38.738Z,99729.00
2024-01-16T08:19:05.544Z,99729.03
2024-01-16T08:21:32.083Z,99736.94
2024-01-16T08:23:58.700Z,99740.34
2024-01-16T08:26:25.538Z,99735.19
2024-01-16T08:28:52.703Z,99740.41
2024-01-16T08:31:19.916Z,99748.25
2024-01-16T08:33:48.420Z,99746.59
2024-01-16T08:36:16.489Z,99747.47
2024-01-16T08:38:45.987Z,99752.69
2024-01-16T08:41:12.512Z,99745.78
2024-01-16T08:43:39.135Z,99750.13
2024-01-16T08:46:05.619Z,99751.06
2024-01-16T08:48:32.693Z,99758.03
2024-01-16T08:51:02.058Z,99760.63
2024-01-16T08:53:29.115Z,99753.66
2024-01-16T08:55:55.977Z,99756.28
2024-01-16T08:58:22.441Z,99756.31
2024-01-16T09:00:49.042Z,99756.31
2024-01-16T09:03:15.495Z,99752.84
2024-01-16T09:05:42.152Z,99746.78
2024-01-16T09:08:11.832Z,99750.22
2024-01-16T09:10:39.974Z,99756.41
2024-01-16T09:13:06.523Z,99748.56
2024-01-16T09:15:33.324Z,99752.03
2024-01-16T09:17:59.943Z,99758.19
2024-01-16T09:20:26.605Z,99752.97
2024-01-16T09:22:53.428Z,99746.81
2024-01-16T09:25:20.033Z,99739.00
2024-01-16T09:27:46.870Z,99752.06
2024-01-16T09:30:13.879Z,99742.50
2024-01-16T09:32:40.549Z,99745.09
2024-01-16T09:35:10.200Z,99748.59
2024-01-16T09:37:36.922Z,99762.56
2024-01-16T09:40:06.396Z,99762.59
2024-01-16T09:42:33.097Z,99758.22
2024-01-16T09:45:01.781Z,99759.94
2024-01-16T09:47:29.968Z,99754.72
2024-01-16T09:49:58.327Z,99761.69
2024-01-16T09:52:25.177Z,99765.19
2024-01-16T09:54:51.724Z,99775.66
2024-01-16T09:57:21.779Z,99766.94
2024-01-16T09:59:49.362Z,99762.53
2024-01-16T10:02:16.181Z,99755.56
2024-01-16T10:04:42.940Z,99763.41
2024-01-16T10:07:13.088Z,99768.63
2024-01-16T10:09:40.216Z,99764.25
2024-01-16T10:12:07.709Z,99766.88
2024-01-16T10:14:39.694Z,99772.13
2024-01-16T10:17:07.269Z,99774.78
2024-01-16T10:19:43.264Z,99768.63
2024-01-16T10:22:24.442Z,99755.53
2024-01-16T10:25:09.657Z,99748.56
2024-01-16T10:27:37.542Z,99747.63
2024-01-16T10:30:05.449Z,99749.28
2024-01-16T10:32:35.665Z,99742.25
2024-01-16T10:35:05.408Z,99744.84
2024-01-16T10:37:42.294Z,99733.38
2024-01-16T10:40:09.185Z,99735.94
2024-01-16T10:42:35.649Z,99731.56
2024-01-16T10:45:02.150Z,99735.13
2024-01-16T10:47:29.622Z,99732.47
2024-01-16T10:49:56.255Z,99725.19
2024-01-16T10:52:27.468Z,99716.59
2024-01-16T10:54:58.156Z,99703.66
2024-01-16T10:57:26.581Z,99708.13
2024-01-16T11:00:05.799Z,99696.47
2024-01-16T11:02:38.822Z,99693.84
2024-01-16T11:05:07.177Z,99688.66
2024-01-16T11:07:36.862Z,99691.28
2024-01-16T11:10:04.218Z,99692.13
2024-01-16T11:12:33.457Z,99694.03
2024-01-16T11:15:02.513Z,99683.47
2024-01-16T11:17:32.457Z,99686.16
2024-01-16T11:20:13.516Z,99691.34
2024-01-16T11:22:47.100Z,99684.34
2024-01-16T11:25:15.450Z,99684.34
2024-01-16T11:27:43.265Z,99672.97
2024-01-16T11:30:13.392Z,99665.91
2024-01-16T11:32:41.967Z,99655.19
2024-01-16T11:35:09.986Z,99644.78
2024-01-16T11:37:38.951Z,99643.75
2024-01-16T11:40:23.743Z,99634.16
2024-01-16T11:42:51.902Z,99639.78
2024-01-16T11:45:31.087Z,99627.69
2024-01-16T11:48:15.287Z,99627.44
2024-01-16T11:50:42.968Z,99631.31
2024-01-16T11:53:09.932Z,99633.81
2024-01-16T11:56:07.598Z,99627.06
2024-01-16T11:58:55.185Z,99628.72
2024-01-16T12:01:22.471Z,99630.22
2024-01-16T12:04:08.818Z,99627.66
2024-01-16T12:06:37.176Z,99623.03
2024-01-16T12:09:18.463Z,99621.28
2024-01-16T12:11:46.642Z,99622.44
2024-01-16T12:14:13.460Z,99622.09
2024-01-16T12:16:39.996Z,99618.66
2024-01-16T12:19:10.639Z,99624.94
2024-01-16T12:21:45.231Z,99615.72
2024-01-16T12:24:15.792Z,99606.88
2024-01-16T12:26:44.834Z,99598.34
2024-01-16T12:29:11.387Z,99600.22
2024-01-16T12:31:37.900Z,99595.31
2024-01-16T12:34:11.362Z,99590.59
2024-01-16T12:36:39.047Z,99582.22
2024-01-16T12:39:06.195Z,99583.69
2024-01-16T12:41:46.459Z,99575.91
2024-01-16T12:44:16.731Z,99566.63
2024-01-16T12:46:54.828Z,99564.50
2024-01-16T12:49:21.638Z,99568.53
2024-01-16T12:51:49.048Z,99564.88
2024-01-16T12:54:19.531Z,99565.53
2024-01-16T12:56:46.256Z,99565.56
2024-01-16T12:59:13.667Z,99552.41
2024-01-16T13:01:47.847Z,99544.44
2024-01-16T13:04:20.235Z,99539.16
2024-01-16T13:06:49.207Z,99549.59
2024-01-16T13:09:19.622Z,99548.63
2024-01-16T13:11:56.969Z,99540.31
2024-01-16T13:14:24.134Z,99539.88
2024-01-16T13:16:51.841Z,99535.38
2024-01-16T13:19:19.885Z,99537.06
2024-01-16T13:21:47.147Z,99535.50
2024-01-16T13:24:18.450Z,99541.91
2024-01-16T13:26:45.256Z,99541.75
2024-01-16T13:29:11.850Z,99537.31
2024-01-16T13:31:38.397Z,99519.03
2024-01-16T13:34:05.654Z,99530.00
2024-01-16T13:36:47.232Z,99522.63
2024-01-16T13:39:18.757Z,99525.00
2024-01-16T13:41:45.285Z,99520.81
2024-01-16T13:44:12.160Z,99516.19
2024-01-16T13:49:08.791Z,99516.19
2024-01-16T13:51:35.439Z,99515.09
2024-01-16T13:54:02.116Z,99510.19
2024-01-16T13:56:46.187Z,99512.50
2024-01-16T13:59:15.043Z,99509.38
2024-01-16T14:01:42.094Z,99513.78
2024-01-16T14:04:08.643Z,99509.94
2024-01-16T14:06:48.458Z,99503.22
2024-01-16T14:09:21.975Z,99506.56
2024-01-16T14:11:48.585Z,99508.50
2024-01-16T14:14:15.125Z,99507.91
2024-01-16T14:16:51.168Z,99511.06
2024-01-16T14:19:21.826Z,99503.16
2024-01-16T14:21:48.925Z,99521.97
2024-01-16T14:24:15.764Z,99521.25
2024-01-16T14:26:46.538Z,99516.22
2024-01-16T14:29:13.423Z,99521.59
2024-01-16T14:31:43.974Z,99523.28
2024-01-16T14:34:16.429Z,99519.03
2024-01-16T14:36:43.138Z,99519.06
2024-01-16T14:39:14.644Z,99525.47
2024-01-16T14:41:42.400Z,99516.47
2024-01-16T14:44:10.854Z,99512.16
2024-01-16T14:46:37.741Z,99520.16
2024-01-16T14:49:04.705Z,99509.09
2024-01-16T14:51:31.356Z,99518.03
2024-01-16T14:53:58.070Z,99508.25
2024-01-16T14:56:25.418Z,99513.91
2024-01-16T14:58:52.112Z,99510.44
2024-01-16T15:01:19.372Z,99508.78
2024-01-16T15:03:46.142Z,99503.44
2024-01-16T15:06:14.022Z,99503.50
2024-01-16T15:08:40.784Z,99498.19
2024-01-16T15:11:08.229Z,99499.06
2024-01-16T15:13:34.784Z,99499.03
2024-01-16T15:16:01.675Z,99503.53
2024-01-16T15:18:28.981Z,99500.59
2024-01-16T15:20:57.535Z,99496.41
2024-01-16T15:23:26.191Z,99494.66
2024-01-16T15:25:52.974Z,99496.34
2024-01-16T15:28:19.449Z,99499.91
2024-01-16T15:30:47.095Z,99496.72
2024-01-16T15:33:14.930Z,99495.63
2024-01-16T15:35:41.703Z,99500.31
2024-01-16T15:38:08.968Z,99494.25
2024-01-16T15:40:35.601Z,99491.81
2024-01-16T15:43:02.139Z,99491.81
2024-01-16T15:45:28.815Z,99493.66
2024-01-16T15:47:55.516Z,99491.19
2024-01-16T15:50:22.605Z,99505.25
2024-01-16T15:52:50.445Z,99502.63
2024-01-16T15:55:17.579Z,99507.84
2024-01-16T15:57:44.448Z,99512.25
2024-01-16T16:00:11.224Z,99505.31
2024-01-16T16:02:39.650Z,99503.59
2024-01-16T16:05:06.884Z,99501.03
2024-01-16T16:07:33.457Z,99506.25
2024-01-16T16:09:59.982Z,99508.03
2024-01-16T16:12:26.506Z,99507.22
2024-01-16T16:14:53.299Z,99500.31
2024-01-16T16:17:19.966Z,99502.13
2024-01-16T16:19:47.643Z,99502.06
2024-01-16T16:22:15.064Z,99508.22
2024-01-16T16:24:42.639Z,99517.88
2024-01-16T16:27:27.976Z,99528.44
2024-01-16T16:29:58.326Z,99518.81
2024-01-16T16:32:25.537Z,99529.38
2024-01-16T16:34:52.373Z,99529.34
2024-01-16T16:37:19.154Z,99531.13
2024-01-16T16:39:45.721Z,99533.72
2024-01-16T16:42:13.092Z,99529.47
2024-01-16T16:44:39.663Z,99528.59
2024-01-16T16:47:06.201Z,99526.81
2024-01-16T16:49:32.766Z,99531.22
2024-01-16T16:51:59.336Z,99531.25
2024-01-16T16:54:27.032Z,99533.91
2024-01-16T16:56:55.667Z,99536.56
2024-01-16T16:59:22.403Z,99537.44
2024-01-16T17:01:48.980Z,99540.91
2024-01-16T17:04:15.791Z,99537.50
2024-01-16T17:06:42.600Z,99531.38
2024-01-16T17:09:12.666Z,99534.91
2024-01-16T17:11:40.417Z,99534.03
2024-01-16T17:14:07.774Z,99531.38
2024-01-16T17:16:34.258Z,99522.38
2024-01-16T17:19:00.980Z,99519.50
2024-01-16T17:21:28.080Z,99518.09
2024-01-16T17:23:54.705Z,99513.00
2024-01-16T17:26:21.420Z,99512.16
2024-01-16T17:28:47.950Z,99514.81
2024-01-16T17:31:14.405Z,99508.72
2024-01-16T17:33:41.054Z,99502.63
2024-01-16T17:36:11.926Z,99506.09
2024-01-16T17:38:38.677Z,99500.94
2024-01-16T17:41:05.872Z,99497.53
2024-01-16T17:43:32.644Z,99501.00
2024-01-16T17:45:59.372Z,99501.03
2024-01-16T17:48:26.866Z,99500.13
2024-01-16T17:50:53.590Z,99500.97
2024-01-16T17:53:20.519Z,99491.38
2024-01-16T17:55:47.581Z,99486.13
2024-01-16T17:58:15.849Z,99493.06
2024-01-16T18:00:42.460Z,99486.06
2024-01-16T18:03:17.888Z,99473.84
2024-01-16T18:05:51.249Z,99480.81
2024-01-16T18:08:18.388Z,99474.72
2024-01-16T18:10:44.920Z,99455.53
2024-01-16T18:13:11.493Z,99456.34
2024-01-16T18:15:37.985Z,99456.34
2024-01-16T18:18:06.110Z,99458.03
2024-01-16T18:20:33.110Z,99452.81
2024-01-16T18:22:59.856Z,99458.84
2024-01-16T18:25:26.353Z,99447.53
2024-01-16T18:27:58.397Z,99448.41
2024-01-16T18:30:27.582Z,99453.59
2024-01-16T18:32:55.462Z,99444.84
2024-01-16T18:35:22.199Z,99451.00
2024-01-16T18:37:48.778Z,99449.13
2024-01-16T18:40:16.985Z,99449.22
2024-01-16T18:42:46.939Z,99448.31
2024-01-16T18:45:13.636Z,99449.34
2024-01-16T18:47:41.473Z,99437.19
2024-01-16T18:50:10.950Z,99436.22
2024-01-16T18:52:41.702Z,99433.53
2024-01-16T18:55:14.382Z,99435.28
2024-01-16T18:57:41.907Z,99428.25
2024-01-16T19:00:14.657Z,99425.50
2024-01-16T19:02:45.611Z,99416.88
2024-01-16T19:05:13.515Z,99426.44
2024-01-16T19:07:44.981Z,99419.47
2024-01-16T19:10:13.632Z,99421.13
2024-01-16T19:12:42.545Z,99415.84
2024-01-16T19:15:18.709Z,99418.44
2024-01-16T19:17:47.049Z,99420.97
2024-01-16T19:20:14.439Z,99420.00
2024-01-16T19:22:45.663Z,99418.22
2024-01-16T19:25:12.688Z,99408.69
2024-01-16T19:27:42.812Z,99402.63
2024-01-16T19:30:14.899Z,99400.97
2024-01-16T19:32:43.584Z,99399.16
2024-01-16T19:35:11.573Z,99390.38
2024-01-16T19:37:38.336Z,99388.50
2024-01-16T19:40:13.800Z,99384.97
2024-01-16T19:42:40.982Z,99378.09
2024-01-16T19:45:10.337Z,99380.81
2024-01-16T19:47:39.046Z,99380.56
2024-01-16T19:50:10.695Z,99383.03
2024-01-16T19:52:37.268Z,99360.59
2024-01-16T19:55:06.787Z,99374.41
2024-01-16T19:57:33.834Z,99374.41
2024-01-16T20:00:02.614Z,99366.38
2024-01-16T20:02:29.241Z,99363.06
2024-01-16T20:04:55.787Z,99352.53
2024-01-16T20:07:22.307Z,99359.38
2024-01-16T20:09:48.750Z,99348.13
2024-01-16T20:12:15.324Z,99348.00
2024-01-16T20:14:42.761Z,99346.44
2024-01-16T20:17:09.261Z,99337.75
2024-01-16T20:19:35.714Z,99346.31
2024-01-16T20:22:02.181Z,99353.09
2024-01-16T20:24:30.114Z,99360.94
2024-01-16T20:26:56.617Z,99351.56
2024-01-16T20:29:23.189Z,99357.56
2024-01-16T20:31:49.739Z,99358.03
2024-01-16T20:34:16.670Z,99355.59
2024-01-16T20:36:43.517Z,99352.88
2024-01-16T20:39:10.662Z,99351.91
2024-01-16T20:41:37.173Z,99352.78
2024-01-16T20:44:04.213Z,99357.06
2024-01-16T20:46:30.792Z,99359.50
2024-01-16T20:48:57.477Z,99368.91
2024-01-16T20:51:26.137Z,99368.91
2024-01-16T20:53:53.097Z,99368.19
2024-01-16T20:56:19.779Z,99360.41
2024-01-16T20:58:46.271Z,99354.19
2024-01-16T21:01:12.780Z,99346.56
2024-01-16T21:03:39.694Z,99341.19
2024-01-16T21:06:09.496Z,99344.53
2024-01-16T21:08:37.053Z,99332.41
2024-01-16T21:11:03.724Z,99331.56
2024-01-16T21:13:30.542Z,99325.50
2024-01-16T21:15:57.782Z,99311.75
2024-01-16T21:18:24.596Z,99313.47
2024-01-16T21:20:51.334Z,99308.16
2024-01-16T21:23:18.230Z,99304.75
2024-01-16T21:25:44.690Z,99303.09
2024-01-16T21:28:11.150Z,99301.31
2024-01-16T21:30:37.649Z,99314.94
2024-01-16T21:33:04.478Z,99309.69
2024-01-16T21:35:30.998Z,99305.66
2024-01-16T21:37:57.455Z,99310.44
2024-01-16T21:40:23.934Z,99306.41
2024-01-16T21:42:50.579Z,99308.09
2024-01-16T21:45:17.081Z,99301.06
2024-01-16T21:47:43.852Z,99297.44
2024-01-16T21:52:39.516Z,99297.31
2024-01-16T21:55:07.376Z,99283.38
2024-01-16T21:57:34.297Z,99282.53
2024-01-16T22:00:03.741Z,99283.28
2024-01-16T22:02:30.383Z,99284.09
2024-01-16T22:04:56.858Z,99273.72
2024-01-16T22:07:23.340Z,99278.13
2024-01-16T22:09:49.819Z,99267.56
2024-01-16T22:12:16.378Z,99263.28
2024-01-16T22:14:43.020Z,99267.56
2024-01-16T22:17:09.515Z,99261.50
2024-01-16T22:19:36.055Z,99246.72
2024-01-16T22:22:02.591Z,99243.25
2024-01-16T22:24:29.089Z,99249.41
2024-01-16T22:26:55.637Z,99234.53
2024-01-16T22:29:22.153Z,99236.34
2024-01-16T22:31:48.631Z,99229.50
2024-01-16T22:34:15.357Z,99228.72
2024-01-16T22:36:42.057Z,99221.09
2024-01-16T22:39:16.438Z,99233.16
2024-01-16T22:41:47.980Z,99233.94
2024-01-16T22:44:15.537Z,99217.44
2024-01-16T22:46:42.403Z,99220.84
2024-01-16T22:49:09.083Z,99213.13
2024-01-16T22:51:38.903Z,99213.06
2024-01-16T22:54:05.942Z,99219.19
2024-01-16T22:56:32.928Z,99206.91
2024-01-16T22:59:03.669Z,99204.53
2024-01-16T23:01:31.037Z,99190.66
2024-01-16T23:03:58.711Z,99191.53
2024-01-16T23:06:28.747Z,99184.69
2024-01-16T23:08:57.735Z,99189.78
2024-01-16T23:11:25.012Z,99178.56
2024-01-16T23:13:52.077Z,99185.47
2024-01-16T23:16:18.775Z,99183.97
2024-01-16T23:18:46.721Z,99173.59
2024-01-16T23:21:14.189Z,99163.31
2024-01-16T23:23:44.889Z,99155.63
2024-01-16T23:26:15.694Z,99146.78
2024-01-16T23:28:42.204Z,99143.28
2024-01-16T23:31:09.898Z,99144.91
2024-01-16T23:33:36.531Z,99144.19
2024-01-16T23:36:03.274Z,99146.03
2024-01-16T23:38:29.909Z,99143.19
2024-01-16T23:40:57.404Z,99137.19
2024-01-16T23:43:23.958Z,99138.06
2024-01-16T23:45:51.382Z,99120.81
2024-01-16T23:48:18.169Z,99106.13
2024-01-16T23:50:44.874Z,99106.94
2024-01-16T23:53:11.568Z,99100.13
2024-01-16T23:55:39.358Z,99096.72
2024-01-16T23:58:05.977Z,99094.94
